createdAt,value
2023-03-07T00:02:02.785Z,76.18
2023-03-07T00:04:30.187Z,75.80
2023-03-07T00:06:57.710Z,69.25
2023-03-07T00:09:26.291Z,72.32
2023-03-07T00:11:53.880Z,75.97
2023-03-07T00:14:21.355Z,64.47
2023-03-07T00:16:51.630Z,68.43
2023-03-07T00:19:19.090Z,68.82
2023-03-07T00:21:46.533Z,70.05
2023-03-07T00:24:14.029Z,73.30
2023-03-07T00:26:41.516Z,74.22
2023-03-07T00:29:10.379Z,71.90
2023-03-07T00:31:38.046Z,66.88
2023-03-07T00:34:05.660Z,67.45
2023-03-07T00:36:33.220Z,68.60
2023-03-07T00:39:00.605Z,73.25
2023-03-07T00:41:29.342Z,78.80
2023-03-07T00:43:56.840Z,78.88
2023-03-07T00:46:25.962Z,75.90
2023-03-07T00:48:54.517Z,76.22
2023-03-07T00:51:23.515Z,75.25
2023-03-07T00:53:51.407Z,78.13
2023-03-07T00:56:23.066Z,73.82
2023-03-07T00:58:51.626Z,71.63
2023-03-07T01:01:23.373Z,75.00
2023-03-07T01:03:53.944Z,73.88
2023-03-07T01:06:24.464Z,74.45
2023-03-07T01:08:54.071Z,72.78
2023-03-07T01:11:21.617Z,71.07
2023-03-07T01:13:49.102Z,76.63
2023-03-07T01:16:19.809Z,72.32
2023-03-07T01:19:08.526Z,80.43
2023-03-07T01:21:39.276Z,71.60
2023-03-07T01:24:08.050Z,75.68
2023-03-07T01:26:35.782Z,79.38
2023-03-07T01:29:05.729Z,72.97
2023-03-07T01:31:38.402Z,73.50
2023-03-07T01:34:07.231Z,76.75
2023-03-07T01:36:36.960Z,70.80
2023-03-07T01:39:14.659Z,79.28
2023-03-07T01:41:56.264Z,83.40
2023-03-07T01:44:27.791Z,74.43
2023-03-07T01:47:00.528Z,86.65
2023-03-07T01:49:45.611Z,86.75
2023-03-07T01:52:32.611Z,85.35
2023-03-07T01:55:11.836Z,88.72
2023-03-07T01:57:43.589Z,87.60
2023-03-07T02:00:18.807Z,89.82
2023-03-07T02:02:49.640Z,86.55
2023-03-07T02:05:28.097Z,93.22
2023-03-07T02:07:59.052Z,92.30
2023-03-07T02:10:30.749Z,96.32
2023-03-07T02:12:58.193Z,106.82
2023-03-07T02:15:25.805Z,97.53
2023-03-07T02:17:53.844Z,91.50
2023-03-07T02:20:56.271Z,89.78
2023-03-07T02:23:24.344Z,103.97
2023-03-07T02:25:58.248Z,99.47
2023-03-07T02:28:27.180Z,100.63
2023-03-07T02:31:00.861Z,92.93
2023-03-07T02:33:32.027Z,103.18
2023-03-07T02:36:08.207Z,91.72
2023-03-07T02:38:40.950Z,88.57
2023-03-07T02:41:12.113Z,72.67
2023-03-07T02:43:39.809Z,100.70
2023-03-07T02:46:08.223Z,99.57
2023-03-07T02:48:35.678Z,98.97
2023-03-07T02:51:03.706Z,93.72
2023-03-07T02:53:31.359Z,100.93
2023-03-07T02:55:58.762Z,90.70
2023-03-07T02:58:26.506Z,82.13
2023-03-07T03:00:53.907Z,85.85
2023-03-07T03:03:21.472Z,85.82
2023-03-07T03:05:49.093Z,87.20
2023-03-07T03:08:16.568Z,84.30
2023-03-07T03:10:44.180Z,83.22
2023-03-07T03:13:12.817Z,73.00
2023-03-07T03:15:42.319Z,73.95
2023-03-07T03:18:09.787Z,74.43
2023-03-07T03:20:39.901Z,76.47
2023-03-07T03:23:07.319Z,76.05
2023-03-07T03:25:35.903Z,71.35
2023-03-07T03:28:04.469Z,70.93
2023-03-07T03:30:35.771Z,75.75
2023-03-07T03:33:04.143Z,74.88
2023-03-07T03:35:33.656Z,73.85
2023-03-07T03:38:01.967Z,76.55
2023-03-07T03:40:29.581Z,68.22
2023-03-07T03:42:57.236Z,72.57
2023-03-07T03:45:26.407Z,74.70
2023-03-07T03:47:54.224Z,85.80
2023-03-07T03:50:21.887Z,76.30
2023-03-07T03:52:49.371Z,73.10
2023-03-07T03:55:16.934Z,69.80
2023-03-07T03:57:44.380Z,72.25
2023-03-07T04:00:15.895Z,72.82
2023-03-07T04:02:44.051Z,82.80
2023-03-07T04:05:15.539Z,71.25
2023-03-07T04:07:43.013Z,72.68
2023-03-07T04:10:11.236Z,72.15
2023-03-07T04:12:39.530Z,81.35
2023-03-07T04:15:07.769Z,78.70
2023-03-07T04:17:36.167Z,74.30
2023-03-07T04:20:05.137Z,75.45
2023-03-07T04:22:33.673Z,80.90
2023-03-07T04:25:01.124Z,78.40
2023-03-07T04:27:28.663Z,83.28
2023-03-07T04:29:56.307Z,83.15
2023-03-07T04:32:23.865Z,76.43
2023-03-07T04:34:51.385Z,87.72
2023-03-07T04:37:18.801Z,86.32
2023-03-07T04:39:46.276Z,82.60
2023-03-07T04:42:14.185Z,78.03
2023-03-07T04:44:41.609Z,85.93
2023-03-07T04:47:09.027Z,79.05
2023-03-07T04:49:37.381Z,81.45
2023-03-07T04:52:06.539Z,87.22
2023-03-07T04:54:34.085Z,86.68
2023-03-07T04:57:04.068Z,81.68
2023-03-07T04:59:32.163Z,87.82
2023-03-07T05:01:59.758Z,91.28
2023-03-07T05:04:28.302Z,97.25
2023-03-07T05:06:55.994Z,90.13
2023-03-07T05:09:23.593Z,87.93
2023-03-07T05:11:53.537Z,90.85
2023-03-07T05:14:21.423Z,98.38
2023-03-07T05:16:48.906Z,99.32
2023-03-07T05:19:16.906Z,86.03
2023-03-07T05:21:44.659Z,92.43
2023-03-07T05:24:12.918Z,90.38
2023-03-07T05:26:40.822Z,95.00
2023-03-07T05:29:08.339Z,84.85
2023-03-07T05:31:36.417Z,88.28
2023-03-07T05:34:06.062Z,94.03
2023-03-07T05:36:33.765Z,96.28
2023-03-07T05:39:01.741Z,101.03
2023-03-07T05:41:29.343Z,91.47
2023-03-07T05:43:58.265Z,97.40
2023-03-07T05:46:26.218Z,96.05
2023-03-07T05:48:53.864Z,92.03
2023-03-07T05:51:21.726Z,96.97
2023-03-07T05:53:49.680Z,84.60
2023-03-07T05:56:17.568Z,96.05
2023-03-07T05:58:45.103Z,94.03
2023-03-07T06:01:13.081Z,86.35
2023-03-07T06:03:40.769Z,107.00
2023-03-07T06:06:08.606Z,95.15
2023-03-07T06:08:36.058Z,96.38
2023-03-07T06:11:03.763Z,93.43
2023-03-07T06:13:31.547Z,94.60
2023-03-07T06:15:59.805Z,94.45
2023-03-07T06:18:27.312Z,93.60
2023-03-07T06:21:03.735Z,92.55
2023-03-07T06:23:37.536Z,102.63
2023-03-07T06:26:10.426Z,107.15
2023-03-07T06:28:39.706Z,93.68
2023-03-07T06:31:11.308Z,105.57
2023-03-07T06:33:39.350Z,80.43
2023-03-07T06:36:12.806Z,84.18
2023-03-07T06:38:42.257Z,81.53
2023-03-07T06:41:10.194Z,87.95
2023-03-07T06:43:38.469Z,91.90
2023-03-07T06:46:07.515Z,96.97
2023-03-07T06:48:39.643Z,98.25
2023-03-07T06:51:11.130Z,86.30
2023-03-07T06:53:41.240Z,91.97
2023-03-07T06:56:09.021Z,91.05
2023-03-07T06:58:37.217Z,80.82
2023-03-07T07:01:04.992Z,83.15
2023-03-07T07:03:35.212Z,81.57
2023-03-07T07:06:03.720Z,76.30
2023-03-07T07:08:31.700Z,82.50
2023-03-07T07:10:59.627Z,78.20
2023-03-07T07:13:27.871Z,80.85
2023-03-07T07:15:55.447Z,83.93
2023-03-07T07:18:24.608Z,86.47
2023-03-07T07:20:56.312Z,84.57
2023-03-07T07:23:26.465Z,90.97
2023-03-07T07:25:54.546Z,88.93
2023-03-07T07:28:22.378Z,93.07
2023-03-07T07:30:50.131Z,89.10
2023-03-07T07:33:18.069Z,86.35
2023-03-07T07:35:49.246Z,75.72
2023-03-07T07:38:16.757Z,76.05
2023-03-07T07:40:45.058Z,74.78
2023-03-07T07:43:17.556Z,71.93
2023-03-07T07:48:23.438Z,74.07
2023-03-07T07:50:50.938Z,88.47
2023-03-07T07:53:18.673Z,83.45
2023-03-07T07:55:48.912Z,79.93
2023-03-07T07:58:16.981Z,84.32
2023-03-07T08:00:46.139Z,81.32
2023-03-07T08:03:13.589Z,90.28
2023-03-07T08:05:45.564Z,89.75
2023-03-07T08:08:12.975Z,91.60
2023-03-07T08:10:43.113Z,87.35
2023-03-07T08:13:15.027Z,90.20
2023-03-07T08:15:42.891Z,79.55
2023-03-07T08:18:10.977Z,76.13
2023-03-07T08:20:39.635Z,75.75
2023-03-07T08:23:07.763Z,77.57
2023-03-07T08:25:35.405Z,70.53
2023-03-07T08:28:05.041Z,75.97
2023-03-07T08:30:35.179Z,66.93
2023-03-07T08:33:03.389Z,71.90
2023-03-07T08:35:31.706Z,73.30
2023-03-07T08:38:00.591Z,72.18
2023-03-07T08:40:29.967Z,76.70
2023-03-07T08:42:59.242Z,77.82
2023-03-07T08:45:26.918Z,78.15
2023-03-07T08:47:57.800Z,80.72
2023-03-07T08:50:28.141Z,75.10
2023-03-07T08:52:55.693Z,79.65
2023-03-07T08:55:23.373Z,83.63
2023-03-07T08:57:51.124Z,82.95
2023-03-07T09:00:18.992Z,79.05
2023-03-07T09:02:46.672Z,77.30
2023-03-07T09:05:14.046Z,78.57
2023-03-07T09:07:42.461Z,82.45
2023-03-07T09:10:11.671Z,80.18
2023-03-07T09:12:39.078Z,77.30
2023-03-07T09:15:06.971Z,82.38
2023-03-07T09:17:34.376Z,83.05
2023-03-07T09:20:01.796Z,84.53
2023-03-07T09:22:29.240Z,76.85
2023-03-07T09:24:56.955Z,81.07
2023-03-07T09:27:24.758Z,76.47
2023-03-07T09:29:52.180Z,78.20
2023-03-07T09:32:19.615Z,74.97
2023-03-07T09:34:47.041Z,77.50
2023-03-07T09:37:14.993Z,79.25
2023-03-07T09:39:42.460Z,76.53
2023-03-07T09:42:19.211Z,78.65
2023-03-07T09:44:55.457Z,65.15
2023-03-07T09:48:26.035Z,68.38
2023-03-07T09:51:15.587Z,65.10
2023-03-07T09:53:50.715Z,67.93
2023-03-07T09:56:35.941Z,60.17
2023-03-07T09:59:22.698Z,63.95
2023-03-07T10:02:10.999Z,63.58
2023-03-07T10:05:00.958Z,57.60
2023-03-07T10:07:29.530Z,59.28
2023-03-07T10:10:12.246Z,61.63
2023-03-07T10:13:17.084Z,54.90
2023-03-07T10:15:57.808Z,54.63
2023-03-07T10:18:44.106Z,56.95
2023-03-07T10:21:42.205Z,56.78
2023-03-07T10:24:48.212Z,54.53
2023-03-07T10:27:16.571Z,58.00
2023-03-07T10:29:49.251Z,59.85
2023-03-07T10:32:39.536Z,56.85
2023-03-07T10:35:15.692Z,65.40
2023-03-07T10:38:05.220Z,56.03
2023-03-07T10:40:40.099Z,62.20
2023-03-07T10:43:23.156Z,58.20
2023-03-07T10:45:59.149Z,56.05
2023-03-07T10:48:28.143Z,52.80
2023-03-07T10:51:06.037Z,47.58
2023-03-07T10:53:36.703Z,50.05
2023-03-07T10:56:14.580Z,50.13
2023-03-07T10:59:03.937Z,46.58
2023-03-07T11:01:33.763Z,42.53
2023-03-07T11:04:06.281Z,44.17
2023-03-07T11:06:51.884Z,42.88
2023-03-07T11:09:35.546Z,44.00
2023-03-07T11:12:05.855Z,44.97
2023-03-07T11:14:52.548Z,49.13
2023-03-07T11:17:27.297Z,83.20
2023-03-07T11:19:55.960Z,65.25
2023-03-07T11:22:35.758Z,42.47
2023-03-07T11:25:29.516Z,47.22
2023-03-07T11:27:58.552Z,44.20
2023-03-07T11:30:30.505Z,44.38
2023-03-07T11:33:16.714Z,43.80
2023-03-07T11:36:06.861Z,40.55
2023-03-07T11:38:46.033Z,44.08
2023-03-07T11:41:35.962Z,39.72
2023-03-07T11:44:25.379Z,45.95
2023-03-07T11:47:13.745Z,42.70
2023-03-07T11:49:55.669Z,37.75
2023-03-07T11:52:42.709Z,43.50
2023-03-07T11:55:43.977Z,44.42
2023-03-07T11:58:26.221Z,42.75
2023-03-07T12:00:59.361Z,41.30
2023-03-07T12:04:01.603Z,38.97
2023-03-07T12:06:50.062Z,33.90
2023-03-07T12:09:35.972Z,29.77
2023-03-07T12:12:16.906Z,33.55
2023-03-07T12:15:20.744Z,27.98
2023-03-07T12:18:20.037Z,30.40
2023-03-07T12:21:05.918Z,27.75
2023-03-07T12:23:42.365Z,36.20
2023-03-07T12:26:25.633Z,34.38
2023-03-07T12:29:00.964Z,30.05
2023-03-07T12:31:33.589Z,28.90
2023-03-07T12:34:10.048Z,27.85
2023-03-07T12:37:02.592Z,31.17
2023-03-07T12:40:03.618Z,29.70
2023-03-07T12:42:33.800Z,31.45
2023-03-07T12:45:20.133Z,24.30
2023-03-07T12:47:59.829Z,42.70
2023-03-07T12:50:34.191Z,36.55
2023-03-07T12:53:27.152Z,23.90
2023-03-07T12:56:15.425Z,31.08
2023-03-07T12:59:15.924Z,21.23
2023-03-07T13:01:52.710Z,28.00
2023-03-07T13:04:30.202Z,26.52
2023-03-07T13:07:18.658Z,30.48
2023-03-07T13:09:48.867Z,28.52
2023-03-07T13:12:16.461Z,27.05
2023-03-07T13:14:45.775Z,30.65
2023-03-07T13:17:35.265Z,26.38
2023-03-07T13:20:05.117Z,25.35
2023-03-07T13:22:32.483Z,27.23
2023-03-07T13:25:29.649Z,24.60
2023-03-07T13:28:02.525Z,21.30
2023-03-07T13:33:25.135Z,27.60
2023-03-07T13:35:58.222Z,24.25
2023-03-07T13:38:33.730Z,27.23
2023-03-07T13:41:05.668Z,24.70
2023-03-07T13:43:53.032Z,23.95
2023-03-07T13:46:38.789Z,26.98
2023-03-07T13:49:07.496Z,25.00
2023-03-07T13:51:34.890Z,29.05
2023-03-07T13:54:04.587Z,22.58
2023-03-07T13:56:39.468Z,23.92
2023-03-07T13:59:12.655Z,24.55
2023-03-07T14:01:42.812Z,30.27
2023-03-07T14:04:37.002Z,22.25
2023-03-07T14:07:22.358Z,26.02
2023-03-07T14:09:55.878Z,22.42
2023-03-07T14:12:45.880Z,27.25
2023-03-07T14:15:21.924Z,30.90
2023-03-07T14:18:14.430Z,56.22
2023-03-07T14:21:01.003Z,20.85
2023-03-07T14:23:34.978Z,20.33
2023-03-07T14:26:21.388Z,22.40
2023-03-07T14:28:50.348Z,26.13
2023-03-07T14:31:25.395Z,27.15
2023-03-07T14:33:53.582Z,24.67
2023-03-07T14:36:30.937Z,26.00
2023-03-07T14:39:04.348Z,24.60
2023-03-07T14:42:13.731Z,27.20
2023-03-07T14:45:20.030Z,22.33
2023-03-07T14:48:05.577Z,24.00
2023-03-07T14:50:34.037Z,22.40
2023-03-07T14:53:12.065Z,29.67
2023-03-07T14:55:42.972Z,22.17
2023-03-07T14:58:23.569Z,24.52
2023-03-07T15:01:01.091Z,24.27
2023-03-07T15:03:29.842Z,28.40
2023-03-07T15:05:59.865Z,20.17
2023-03-07T15:08:29.965Z,22.85
2023-03-07T15:11:38.267Z,22.23
2023-03-07T15:14:12.255Z,25.27
2023-03-07T15:16:48.402Z,24.77
2023-03-07T15:19:43.190Z,29.95
2023-03-07T15:22:25.416Z,27.65
2023-03-07T15:24:53.187Z,22.52
2023-03-07T15:27:28.597Z,23.92
2023-03-07T15:29:56.712Z,24.38
2023-03-07T15:32:39.085Z,26.33
2023-03-07T15:38:13.884Z,25.98
2023-03-07T15:40:42.219Z,28.30
2023-03-07T15:43:21.576Z,32.78
2023-03-07T15:46:19.051Z,24.65
2023-03-07T15:48:52.325Z,24.35
2023-03-07T15:51:23.890Z,31.88
2023-03-07T15:54:04.349Z,32.75
2023-03-07T15:56:36.938Z,23.33
2023-03-07T15:59:15.523Z,26.65
2023-03-07T16:01:43.318Z,25.05
2023-03-07T16:04:37.364Z,26.58
2023-03-07T16:07:06.395Z,24.08
2023-03-07T16:09:33.808Z,28.83
2023-03-07T16:12:05.575Z,25.65
2023-03-07T16:14:33.680Z,21.90
2023-03-07T16:17:29.771Z,21.70
2023-03-07T16:19:57.457Z,17.45
2023-03-07T16:22:26.144Z,21.13
2023-03-07T16:24:53.579Z,20.85
2023-03-07T16:27:23.598Z,19.05
2023-03-07T16:29:53.201Z,19.40
2023-03-07T16:32:22.669Z,16.08
2023-03-07T16:34:50.831Z,14.60
2023-03-07T16:37:18.510Z,18.35
2023-03-07T16:39:45.949Z,15.60
2023-03-07T16:42:21.335Z,15.05
2023-03-07T16:44:51.160Z,16.50
2023-03-07T16:47:18.908Z,24.73
2023-03-07T16:49:50.935Z,23.13
2023-03-07T16:52:18.463Z,14.85
2023-03-07T16:54:45.872Z,26.48
2023-03-07T16:57:16.534Z,15.40
2023-03-07T16:59:46.969Z,17.38
2023-03-07T17:02:19.219Z,19.13
2023-03-07T17:04:47.174Z,14.40
2023-03-07T17:07:20.339Z,14.68
2023-03-07T17:09:48.310Z,14.13
2023-03-07T17:12:16.423Z,15.15
2023-03-07T17:14:45.276Z,15.48
2023-03-07T17:17:19.607Z,14.75
2023-03-07T17:19:47.094Z,17.80
2023-03-07T17:22:14.469Z,14.45
2023-03-07T17:24:41.878Z,17.88
2023-03-07T17:27:09.505Z,8.80
2023-03-07T17:29:43.681Z,15.23
2023-03-07T17:32:11.625Z,19.88
2023-03-07T17:34:39.282Z,15.18
2023-03-07T17:37:07.241Z,17.83
2023-03-07T17:39:35.101Z,17.70
2023-03-07T17:42:03.506Z,20.95
2023-03-07T17:44:31.622Z,14.23
2023-03-07T17:46:59.436Z,18.92
2023-03-07T17:49:35.861Z,18.92
2023-03-07T17:52:05.238Z,17.27
2023-03-07T17:54:33.287Z,15.98
2023-03-07T17:57:01.726Z,16.45
2023-03-07T17:59:32.306Z,15.10
2023-03-07T18:01:59.770Z,13.07
2023-03-07T18:04:30.998Z,20.90
2023-03-07T18:06:59.603Z,23.77
2023-03-07T18:09:27.326Z,26.42
2023-03-07T18:11:54.754Z,14.57
2023-03-07T18:14:22.728Z,18.63
2023-03-07T18:16:50.766Z,15.43
2023-03-07T18:19:26.203Z,14.23
2023-03-07T18:21:55.527Z,17.70
2023-03-07T18:24:30.218Z,22.45
2023-03-07T18:27:03.257Z,21.35
2023-03-07T18:29:31.124Z,20.48
2023-03-07T18:31:58.543Z,22.70
2023-03-07T18:34:25.968Z,20.00
2023-03-07T18:36:54.375Z,16.25
2023-03-07T18:39:23.178Z,21.67
2023-03-07T18:41:51.044Z,15.23
2023-03-07T18:44:19.684Z,16.20
2023-03-07T18:46:47.298Z,19.50
2023-03-07T18:49:14.917Z,18.88
2023-03-07T18:51:45.715Z,18.75
2023-03-07T18:54:14.079Z,15.88
2023-03-07T18:56:42.724Z,15.63
2023-03-07T18:59:10.303Z,15.95
2023-03-07T19:01:39.636Z,23.27
2023-03-07T19:04:08.218Z,13.63
2023-03-07T19:06:39.230Z,22.50
2023-03-07T19:09:13.814Z,20.75
2023-03-07T19:11:41.204Z,16.85
2023-03-07T19:14:08.542Z,18.20
2023-03-07T19:16:36.132Z,19.52
2023-03-07T19:19:03.786Z,19.73
2023-03-07T19:21:32.078Z,18.60
2023-03-07T19:24:01.592Z,14.95
2023-03-07T19:26:29.378Z,23.15
2023-03-07T19:28:57.558Z,16.60
2023-03-07T19:31:27.728Z,14.80
2023-03-07T19:33:55.951Z,16.45
2023-03-07T19:36:27.342Z,15.27
2023-03-07T19:38:57.130Z,15.13
2023-03-07T19:41:26.062Z,17.55
2023-03-07T19:43:55.018Z,19.00
2023-03-07T19:46:22.685Z,23.77
2023-03-07T19:48:50.599Z,16.83
2023-03-07T19:51:26.149Z,19.13
2023-03-07T19:53:56.946Z,20.10
2023-03-07T19:56:27.712Z,15.13
2023-03-07T19:58:56.143Z,15.65
2023-03-07T20:01:24.760Z,16.65
2023-03-07T20:03:53.417Z,16.85
2023-03-07T20:06:27.194Z,17.45
2023-03-07T20:08:55.862Z,15.63
2023-03-07T20:11:28.119Z,12.82
2023-03-07T20:16:25.059Z,20.10
2023-03-07T20:18:53.914Z,17.25
2023-03-07T20:21:25.707Z,17.80
2023-03-07T20:23:59.148Z,21.30
2023-03-07T20:26:35.574Z,23.70
2023-03-07T20:29:05.605Z,28.65
2023-03-07T20:31:33.872Z,23.65
2023-03-07T20:34:01.320Z,23.10
2023-03-07T20:36:33.991Z,19.52
2023-03-07T20:39:04.161Z,17.15
2023-03-07T20:41:33.096Z,16.63
2023-03-07T20:44:03.873Z,15.85
2023-03-07T20:46:32.203Z,14.43
2023-03-07T20:49:01.185Z,15.23
2023-03-07T20:51:31.798Z,15.77
2023-03-07T20:54:07.941Z,21.80
2023-03-07T20:56:37.463Z,17.77
2023-03-07T20:59:06.040Z,24.48
2023-03-07T21:01:34.583Z,21.15
2023-03-07T21:04:10.960Z,84.60
2023-03-07T21:06:43.132Z,40.92
2023-03-07T21:09:12.189Z,25.70
2023-03-07T21:11:45.145Z,23.65
2023-03-07T21:14:13.679Z,20.33
2023-03-07T21:16:41.321Z,26.05
2023-03-07T21:19:09.348Z,42.63
2023-03-07T21:21:37.597Z,37.28
2023-03-07T21:24:06.573Z,26.33
2023-03-07T21:26:36.250Z,26.73
2023-03-07T21:29:04.674Z,38.92
2023-03-07T21:31:34.104Z,25.15
2023-03-07T21:34:04.286Z,23.48
2023-03-07T21:36:31.949Z,20.35
2023-03-07T21:39:00.113Z,18.75
2023-03-07T21:41:27.648Z,28.40
2023-03-07T21:43:56.244Z,22.23
2023-03-07T21:46:24.391Z,25.42
2023-03-07T21:48:52.187Z,29.55
2023-03-07T21:51:19.957Z,18.25
2023-03-07T21:53:47.455Z,25.17
2023-03-07T21:56:17.226Z,22.77
2023-03-07T21:58:48.514Z,18.10
2023-03-07T22:01:28.043Z,23.65
2023-03-07T22:03:57.107Z,20.02
2023-03-07T22:06:25.439Z,22.73
2023-03-07T22:08:52.914Z,20.88
2023-03-07T22:11:20.517Z,26.10
2023-03-07T22:13:48.000Z,32.92
2023-03-07T22:16:23.189Z,22.67
2023-03-07T22:18:57.348Z,20.02
2023-03-07T22:21:27.872Z,21.05
2023-03-07T22:24:01.010Z,28.50
2023-03-07T22:26:30.650Z,56.38
2023-03-07T22:28:58.628Z,44.58
2023-03-07T22:31:26.526Z,27.63
2023-03-07T22:33:53.998Z,57.33
2023-03-07T22:36:21.649Z,42.75
2023-03-07T22:38:54.926Z,232.15
2023-03-07T22:41:23.390Z,42.33
2023-03-07T22:43:52.465Z,47.53
2023-03-07T22:46:20.291Z,52.22
2023-03-07T22:48:51.172Z,31.60
2023-03-07T22:51:18.595Z,28.38
2023-03-07T22:53:46.415Z,24.35
2023-03-07T22:56:24.890Z,27.77
2023-03-07T22:58:52.957Z,22.27
2023-03-07T23:01:23.245Z,26.02
2023-03-07T23:03:52.410Z,23.52
2023-03-07T23:06:20.951Z,26.02
2023-03-07T23:08:51.043Z,24.23
2023-03-07T23:11:22.647Z,22.83
2023-03-07T23:13:50.761Z,23.60
2023-03-07T23:16:20.890Z,24.75
2023-03-07T23:18:51.727Z,28.00
2023-03-07T23:21:22.859Z,23.20
2023-03-07T23:23:52.871Z,23.15
2023-03-07T23:26:32.080Z,23.25
2023-03-07T23:29:00.365Z,18.85
2023-03-07T23:31:30.808Z,27.33
2023-03-07T23:34:00.691Z,27.75
2023-03-07T23:36:29.837Z,25.67
2023-03-07T23:38:58.460Z,25.88
2023-03-07T23:41:26.756Z,33.88
2023-03-07T23:43:57.242Z,36.92
2023-03-07T23:46:25.600Z,32.30
2023-03-07T23:48:53.828Z,31.00
2023-03-07T23:51:22.131Z,24.92
2023-03-07T23:53:49.878Z,31.70
2023-03-07T23:56:17.330Z,22.88
2023-03-07T23:58:47.447Z,25.92
